createdAt,value
2022-12-12T00:02:55.207Z,100.00
2022-12-12T00:07:59.250Z,100.00
2022-12-12T00:13:04.995Z,100.00
2022-12-12T00:18:08.600Z,100.00
2022-12-12T00:23:12.287Z,100.00
2022-12-12T00:28:17.304Z,100.00
2022-12-12T00:33:21.036Z,100.00
2022-12-12T00:38:25.116Z,100.00
2022-12-12T00:43:30.222Z,100.00
2022-12-12T00:48:34.076Z,100.00
2022-12-12T00:53:38.568Z,100.00
2022-12-12T00:58:43.711Z,100.00
2022-12-12T01:03:47.956Z,100.00
2022-12-12T01:08:51.568Z,100.00
2022-12-12T01:13:56.761Z,100.00
2022-12-12T01:19:01.291Z,100.00
2022-12-12T01:24:05.463Z,100.00
2022-12-12T01:29:10.689Z,100.00
2022-12-12T01:34:14.221Z,100.00
2022-12-12T01:39:17.732Z,100.00
2022-12-12T01:44:44.869Z,100.00
2022-12-12T01:49:53.430Z,100.00
2022-12-12T01:55:00.726Z,100.00
2022-12-12T02:00:10.058Z,100.00
2022-12-12T02:05:23.559Z,100.00
2022-12-12T02:10:27.129Z,100.00
2022-12-12T02:15:43.789Z,100.00
2022-12-12T02:20:55.206Z,100.00
2022-12-12T02:26:25.428Z,100.00
2022-12-12T02:31:35.897Z,100.00
2022-12-12T02:36:48.794Z,100.00
2022-12-12T02:41:57.061Z,100.00
2022-12-12T02:47:06.218Z,100.00
2022-12-12T02:52:11.055Z,100.00
2022-12-12T02:57:16.748Z,100.00
2022-12-12T03:03:17.672Z,100.00
2022-12-12T03:08:36.893Z,100.00
2022-12-12T03:13:47.636Z,100.00
2022-12-12T03:18:59.471Z,100.00
2022-12-12T03:24:07.565Z,100.00
2022-12-12T03:29:15.610Z,100.00
2022-12-12T03:34:23.624Z,100.00
2022-12-12T03:39:33.697Z,100.00
2022-12-12T03:44:43.464Z,100.00
2022-12-12T03:49:53.162Z,100.00
2022-12-12T03:55:04.305Z,100.00
2022-12-12T04:00:10.715Z,100.00
2022-12-12T04:05:23.186Z,100.00
2022-12-12T04:10:47.481Z,100.00
2022-12-12T04:16:01.116Z,100.00
2022-12-12T04:21:34.862Z,100.00
2022-12-12T04:26:42.017Z,100.00
2022-12-12T04:31:51.983Z,100.00
2022-12-12T04:36:57.323Z,100.00
2022-12-12T04:42:03.427Z,100.00
2022-12-12T04:47:08.550Z,100.00
2022-12-12T04:52:16.483Z,100.00
2022-12-12T04:57:25.310Z,100.00
2022-12-12T05:02:39.220Z,100.00
2022-12-12T05:07:54.519Z,100.00
2022-12-12T05:13:01.416Z,100.00
2022-12-12T05:18:09.862Z,100.00
2022-12-12T05:23:14.969Z,100.00
2022-12-12T05:28:18.605Z,100.00
2022-12-12T05:33:22.209Z,100.00
2022-12-12T05:38:27.180Z,100.00
2022-12-12T05:43:31.664Z,100.00
2022-12-12T05:48:35.719Z,100.00
2022-12-12T05:53:43.160Z,100.00
2022-12-12T05:58:47.679Z,100.00
2022-12-12T06:03:51.551Z,100.00
2022-12-12T06:08:56.696Z,100.00
2022-12-12T06:14:00.532Z,100.00
2022-12-12T06:19:04.948Z,100.00
2022-12-12T06:24:10.785Z,100.00
2022-12-12T06:29:15.002Z,100.00
2022-12-12T06:34:18.660Z,100.00
2022-12-12T06:39:23.658Z,100.00
2022-12-12T06:44:27.308Z,100.00
2022-12-12T06:49:30.856Z,100.00
2022-12-12T06:54:37.113Z,100.00
2022-12-12T06:59:40.719Z,100.00
2022-12-12T07:04:44.373Z,100.00
2022-12-12T07:09:49.513Z,100.00
2022-12-12T07:14:53.174Z,100.00
2022-12-12T07:19:56.814Z,100.00
2022-12-12T07:25:01.807Z,100.00
2022-12-12T07:30:05.950Z,100.00
2022-12-12T07:35:10.421Z,100.00
2022-12-12T07:40:15.554Z,100.00
2022-12-12T07:45:20.197Z,100.00
2022-12-12T07:50:24.787Z,100.00
2022-12-12T07:55:30.023Z,100.00
2022-12-12T08:00:33.740Z,100.00
2022-12-12T08:05:40.700Z,100.00
2022-12-12T08:10:45.759Z,100.00
2022-12-12T08:15:49.273Z,100.00
2022-12-12T08:20:53.004Z,100.00
2022-12-12T08:25:58.318Z,100.00
2022-12-12T08:31:02.092Z,100.00
2022-12-12T08:36:13.790Z,100.00
2022-12-12T08:41:19.790Z,100.00
2022-12-12T08:46:24.632Z,100.00
2022-12-12T08:51:28.242Z,100.00
2022-12-12T08:56:33.653Z,99.27
2022-12-12T09:01:37.659Z,98.90
2022-12-12T09:06:41.642Z,97.80
2022-12-12T09:11:46.586Z,98.69
2022-12-12T09:16:50.233Z,99.09
2022-12-12T09:21:53.749Z,99.51
2022-12-12T09:26:58.716Z,97.95
2022-12-12T09:32:06.531Z,97.98
2022-12-12T09:37:10.103Z,97.91
2022-12-12T09:42:22.917Z,97.60
2022-12-12T09:47:35.765Z,98.20
2022-12-12T09:52:39.875Z,95.57
2022-12-12T09:57:49.528Z,94.15
2022-12-12T10:03:15.142Z,91.14
2022-12-12T10:08:25.468Z,92.08
2022-12-12T10:13:32.697Z,89.91
2022-12-12T10:18:41.112Z,88.81
2022-12-12T10:23:50.576Z,89.01
2022-12-12T10:29:00.221Z,90.94
2022-12-12T10:34:18.832Z,92.23
2022-12-12T10:39:29.990Z,92.71
2022-12-12T10:44:54.231Z,91.31
2022-12-12T10:50:07.436Z,93.26
2022-12-12T10:55:20.347Z,92.82
2022-12-12T11:00:32.614Z,93.21
2022-12-12T11:05:39.357Z,91.88
2022-12-12T11:10:43.146Z,89.36
2022-12-12T11:15:53.739Z,87.36
2022-12-12T11:21:07.983Z,85.82
2022-12-12T11:26:15.165Z,84.78
2022-12-12T11:31:24.546Z,85.10
2022-12-12T11:36:34.525Z,82.35
2022-12-12T11:41:58.607Z,80.14
2022-12-12T11:47:23.171Z,78.30
2022-12-12T11:52:29.722Z,72.48
2022-12-12T11:57:51.930Z,70.33
2022-12-12T12:03:19.380Z,67.96
2022-12-12T12:08:40.364Z,62.14
2022-12-12T12:14:00.637Z,61.93
2022-12-12T12:19:13.873Z,62.83
2022-12-12T12:24:32.347Z,66.46
2022-12-12T12:30:13.641Z,69.09
2022-12-12T12:35:31.345Z,71.91
2022-12-12T12:40:50.187Z,74.31
2022-12-12T12:45:59.965Z,72.52
2022-12-12T12:51:11.231Z,73.56
2022-12-12T12:56:26.309Z,74.17
2022-12-12T13:01:36.161Z,72.29
2022-12-12T13:06:52.726Z,74.10
2022-12-12T13:12:02.793Z,72.26
2022-12-12T13:17:13.537Z,73.61
2022-12-12T13:22:26.211Z,74.69
2022-12-12T13:27:33.107Z,73.83
2022-12-12T13:32:54.906Z,74.63
2022-12-12T13:38:00.694Z,77.33
2022-12-12T13:43:10.078Z,81.56
2022-12-12T13:48:45.919Z,81.79
2022-12-12T13:54:14.243Z,84.14
2022-12-12T13:59:30.703Z,85.97
2022-12-12T14:04:36.815Z,89.56
2022-12-12T14:09:49.515Z,91.23
2022-12-12T14:14:57.022Z,92.66
2022-12-12T14:20:01.522Z,93.66
2022-12-12T14:25:09.421Z,94.96
2022-12-12T14:30:18.874Z,97.45
2022-12-12T14:35:32.599Z,97.77
2022-12-12T14:40:41.537Z,97.96
2022-12-12T14:45:55.879Z,99.37
2022-12-12T14:51:09.588Z,100.00
2022-12-12T14:56:17.222Z,100.00
2022-12-12T15:01:37.564Z,100.00
2022-12-12T15:06:43.377Z,100.00
2022-12-12T15:11:50.178Z,100.00
2022-12-12T15:17:00.364Z,100.00
2022-12-12T15:22:05.035Z,100.00
2022-12-12T15:27:19.604Z,100.00
2022-12-12T15:32:26.050Z,100.00
2022-12-12T15:37:31.468Z,100.00
2022-12-12T15:42:37.153Z,100.00
2022-12-12T15:47:41.166Z,100.00
2022-12-12T15:52:44.946Z,100.00
2022-12-12T15:57:52.319Z,100.00
2022-12-12T16:03:05.014Z,100.00
2022-12-12T16:08:39.104Z,100.00
2022-12-12T16:13:46.758Z,100.00
2022-12-12T16:18:50.308Z,100.00
2022-12-12T16:23:53.998Z,100.00
2022-12-12T16:28:58.996Z,100.00
2022-12-12T16:34:03.908Z,100.00
2022-12-12T16:39:07.522Z,100.00
2022-12-12T16:44:12.775Z,100.00
2022-12-12T16:49:16.405Z,100.00
2022-12-12T16:54:20.122Z,100.00
2022-12-12T16:59:25.064Z,100.00
2022-12-12T17:04:29.132Z,100.00
2022-12-12T17:09:32.799Z,100.00
2022-12-12T17:14:39.493Z,100.00
2022-12-12T17:19:43.062Z,100.00
2022-12-12T17:24:46.664Z,100.00
2022-12-12T17:29:51.713Z,100.00
2022-12-12T17:34:55.397Z,100.00
2022-12-12T17:39:59.133Z,100.00
2022-12-12T17:45:05.724Z,100.00
2022-12-12T17:50:10.846Z,100.00
2022-12-12T17:55:53.503Z,100.00
2022-12-12T18:00:40.079Z,100.00
2022-12-12T18:05:43.708Z,100.00
2022-12-12T18:10:47.275Z,100.00
2022-12-12T18:15:56.302Z,100.00
2022-12-12T18:21:03.888Z,100.00
2022-12-12T18:26:10.016Z,100.00
2022-12-12T18:31:15.320Z,100.00
2022-12-12T18:36:21.009Z,100.00
2022-12-12T18:41:26.304Z,100.00
2022-12-12T18:46:35.911Z,100.00
2022-12-12T18:51:43.852Z,100.00
2022-12-12T18:56:48.570Z,100.00
2022-12-12T19:01:53.633Z,100.00
2022-12-12T19:06:58.756Z,100.00
2022-12-12T19:12:02.910Z,100.00
2022-12-12T19:17:08.675Z,100.00
2022-12-12T19:22:39.964Z,100.00
2022-12-12T19:27:36.230Z,100.00
2022-12-12T19:32:41.177Z,100.00
2022-12-12T19:37:44.927Z,100.00
2022-12-12T19:42:48.617Z,100.00
2022-12-12T19:47:53.620Z,100.00
2022-12-12T19:52:57.135Z,100.00
2022-12-12T19:58:02.517Z,100.00
2022-12-12T20:03:07.741Z,100.00
2022-12-12T20:08:11.414Z,100.00
2022-12-12T20:13:15.294Z,100.00
2022-12-12T20:18:20.282Z,100.00
2022-12-12T20:23:24.240Z,100.00
2022-12-12T20:28:28.633Z,100.00
2022-12-12T20:33:34.414Z,100.00
2022-12-12T20:38:39.426Z,100.00
2022-12-12T20:43:44.401Z,100.00
2022-12-12T20:48:51.036Z,100.00
2022-12-12T20:53:54.791Z,100.00
2022-12-12T20:59:01.631Z,100.00
2022-12-12T21:04:09.672Z,100.00
2022-12-12T21:09:19.146Z,100.00
2022-12-12T21:14:27.905Z,100.00
2022-12-12T21:19:33.242Z,100.00
2022-12-12T21:24:36.964Z,100.00
2022-12-12T21:29:40.563Z,100.00
2022-12-12T21:34:45.569Z,100.00
2022-12-12T21:39:51.298Z,100.00
2022-12-12T21:44:54.940Z,100.00
2022-12-12T21:50:00.101Z,100.00
2022-12-12T21:55:03.693Z,100.00
2022-12-12T22:00:09.004Z,100.00
2022-12-12T22:05:17.561Z,100.00
2022-12-12T22:10:21.041Z,100.00
2022-12-12T22:15:24.564Z,100.00
2022-12-12T22:20:30.050Z,100.00
2022-12-12T22:25:33.665Z,100.00
2022-12-12T22:30:37.340Z,100.00
2022-12-12T22:35:42.985Z,100.00
2022-12-12T22:40:54.626Z,100.00
2022-12-12T22:45:58.247Z,100.00
2022-12-12T22:51:12.762Z,100.00
2022-12-12T22:56:17.017Z,100.00
2022-12-12T23:01:24.311Z,100.00
2022-12-12T23:06:31.066Z,100.00
2022-12-12T23:11:35.354Z,100.00
2022-12-12T23:16:39.217Z,100.00
2022-12-12T23:21:44.530Z,100.00
2022-12-12T23:26:51.510Z,100.00
2022-12-12T23:31:55.233Z,100.00
2022-12-12T23:37:00.247Z,100.00
2022-12-12T23:42:04.430Z,100.00
2022-12-12T23:47:08.526Z,100.00
2022-12-12T23:52:14.702Z,100.00
2022-12-12T23:57:19.045Z,100.00
